createdAt,value
2022-11-20T00:01:54.362Z,0.39
2022-11-20T00:04:20.805Z,-0.41
2022-11-20T00:06:47.826Z,-0.02
2022-11-20T00:09:14.217Z,0.06
2022-11-20T00:11:40.695Z,0.01
2022-11-20T00:14:07.108Z,-0.04
2022-11-20T00:16:34.064Z,0.04
2022-11-20T00:19:01.853Z,0.02
2022-11-20T00:21:30.452Z,-0.24
2022-11-20T00:23:57.956Z,-0.12
2022-11-20T00:26:26.821Z,-0.18
2022-11-20T00:28:58.571Z,-0.74
2022-11-20T00:31:25.542Z,-0.81
2022-11-20T00:33:52.141Z,-0.54
2022-11-20T00:36:20.644Z,-0.31
2022-11-20T00:38:47.579Z,-0.37
2022-11-20T00:41:16.763Z,-0.76
2022-11-20T00:43:43.686Z,-0.78
2022-11-20T00:46:12.760Z,-1.06
2022-11-20T00:48:39.200Z,-0.58
2022-11-20T00:51:05.861Z,-0.65
2022-11-20T00:53:32.608Z,-0.75
2022-11-20T00:56:01.367Z,-0.56
2022-11-20T00:58:35.695Z,-0.63
2022-11-20T01:01:10.567Z,-0.46
2022-11-20T01:03:40.014Z,-0.03
2022-11-20T01:06:10.870Z,-0.23
2022-11-20T01:08:37.896Z,-0.13
2022-11-20T01:11:10.431Z,-0.59
2022-11-20T01:13:38.026Z,0.28
2022-11-20T01:16:17.860Z,0.33
2022-11-20T01:18:46.580Z,0.08
2022-11-20T01:21:21.520Z,-0.49
2022-11-20T01:23:49.691Z,0.11
2022-11-20T01:26:21.230Z,-0.14
2022-11-20T01:28:48.721Z,-0.10
2022-11-20T01:31:16.789Z,0.08
2022-11-20T01:33:44.598Z,-0.66
2022-11-20T01:36:12.135Z,-0.16
2022-11-20T01:38:38.857Z,0.03
2022-11-20T01:41:06.460Z,0.31
2022-11-20T01:43:33.173Z,-0.15
2022-11-20T01:46:03.583Z,-0.34
2022-11-20T01:48:36.805Z,-0.19
2022-11-20T01:51:04.910Z,-0.10
2022-11-20T01:53:35.828Z,-0.05
2022-11-20T01:56:06.574Z,-0.08
2022-11-20T01:58:40.433Z,-0.05
2022-11-20T02:01:06.975Z,0.02
2022-11-20T02:03:33.595Z,-0.36
2022-11-20T02:06:15.913Z,-0.36
2022-11-20T02:08:42.613Z,0.49
2022-11-20T02:11:09.348Z,0.26
2022-11-20T02:13:36.029Z,-0.35
2022-11-20T02:16:04.121Z,-0.07
2022-11-20T02:18:31.311Z,0.09
2022-11-20T02:21:06.643Z,-0.27
2022-11-20T02:23:43.177Z,0.08
2022-11-20T02:26:14.166Z,0.01
2022-11-20T02:28:40.641Z,-0.08
2022-11-20T02:31:07.215Z,-0.42
2022-11-20T02:33:33.603Z,0.12
2022-11-20T02:36:00.032Z,-0.67
2022-11-20T02:38:26.663Z,-0.21
2022-11-20T02:40:55.697Z,-0.63
2022-11-20T02:43:23.257Z,0.16
2022-11-20T02:45:49.626Z,-0.56
2022-11-20T02:48:16.005Z,-0.07
2022-11-20T02:50:42.463Z,-0.29
2022-11-20T02:53:09.045Z,-0.33
2022-11-20T02:55:36.098Z,-0.02
2022-11-20T02:58:02.614Z,0.39
2022-11-20T03:00:29.139Z,-0.03
2022-11-20T03:02:55.555Z,0.07
2022-11-20T03:05:21.955Z,-0.05
2022-11-20T03:07:48.339Z,0.14
2022-11-20T03:10:14.933Z,0.16
2022-11-20T03:12:41.363Z,-0.05
2022-11-20T03:15:08.281Z,-0.46
2022-11-20T03:17:34.709Z,-0.48
2022-11-20T03:20:01.095Z,-0.35
2022-11-20T03:22:30.391Z,-0.03
2022-11-20T03:24:56.844Z,-0.16
2022-11-20T03:27:23.268Z,0.11
2022-11-20T03:29:49.660Z,-0.13
2022-11-20T03:32:16.132Z,0.10
2022-11-20T03:34:42.547Z,-0.28
2022-11-20T03:37:09.000Z,-0.02
2022-11-20T03:39:35.401Z,-0.43
2022-11-20T03:42:01.767Z,0.12
2022-11-20T03:44:28.189Z,0.42
2022-11-20T03:46:54.589Z,0.20
2022-11-20T03:49:21.231Z,-0.16
2022-11-20T03:51:48.635Z,0.19
2022-11-20T03:54:15.142Z,0.25
2022-11-20T03:56:41.566Z,0.32
2022-11-20T03:59:11.086Z,0.16
2022-11-20T04:01:37.916Z,0.08
2022-11-20T04:04:04.772Z,-0.19
2022-11-20T04:06:35.849Z,0.15
2022-11-20T04:09:02.493Z,-0.37
2022-11-20T04:11:31.548Z,0.08
2022-11-20T04:14:00.347Z,-0.53
2022-11-20T04:16:27.673Z,-0.03
2022-11-20T04:18:55.833Z,0.31
2022-11-20T04:21:23.047Z,0.31
2022-11-20T04:23:50.270Z,0.09
2022-11-20T04:26:16.686Z,0.49
2022-11-20T04:28:43.236Z,0.14
2022-11-20T04:31:13.065Z,0.30
2022-11-20T04:33:39.960Z,0.14
2022-11-20T04:36:11.132Z,-0.57
2022-11-20T04:38:37.606Z,-1.03
2022-11-20T04:41:06.966Z,-0.22
2022-11-20T04:43:34.371Z,-0.15
2022-11-20T04:46:01.848Z,-0.18
2022-11-20T04:48:30.464Z,-0.41
2022-11-20T04:50:57.140Z,0.10
2022-11-20T04:53:24.509Z,-0.57
2022-11-20T04:55:50.939Z,-0.25
2022-11-20T04:58:17.455Z,-0.49
2022-11-20T05:00:43.875Z,-0.38
2022-11-20T05:03:10.279Z,-0.07
2022-11-20T05:05:36.685Z,-0.65
2022-11-20T05:08:03.231Z,-0.71
2022-11-20T05:10:29.608Z,-0.78
2022-11-20T05:12:56.003Z,-0.37
2022-11-20T05:15:22.430Z,-0.43
2022-11-20T05:17:53.296Z,-0.47
2022-11-20T05:20:20.522Z,-0.22
2022-11-20T05:22:46.948Z,-0.45
2022-11-20T05:25:13.623Z,-0.52
2022-11-20T05:27:40.073Z,-0.69
2022-11-20T05:30:07.692Z,-0.89
2022-11-20T05:32:34.198Z,-0.52
2022-11-20T05:35:00.625Z,-1.02
2022-11-20T05:37:27.031Z,-0.90
2022-11-20T05:39:53.474Z,-0.81
2022-11-20T05:42:19.847Z,-0.82
2022-11-20T05:44:46.344Z,-0.47
2022-11-20T05:47:12.723Z,-0.74
2022-11-20T05:49:39.159Z,-0.84
2022-11-20T05:52:05.572Z,-0.92
2022-11-20T05:54:32.156Z,-0.27
2022-11-20T05:56:58.568Z,-0.66
2022-11-20T05:59:25.010Z,-0.53
2022-11-20T06:01:51.427Z,-0.57
2022-11-20T06:04:17.835Z,-0.39
2022-11-20T06:06:44.296Z,-0.25
2022-11-20T06:09:10.743Z,-0.44
2022-11-20T06:11:37.167Z,-0.41
2022-11-20T06:14:03.591Z,-0.57
2022-11-20T06:16:30.043Z,-0.67
2022-11-20T06:18:56.532Z,-0.46
2022-11-20T06:21:23.740Z,-0.48
2022-11-20T06:23:51.471Z,-0.69
2022-11-20T06:26:20.795Z,-0.51
2022-11-20T06:28:47.286Z,-0.67
2022-11-20T06:31:16.227Z,-0.99
2022-11-20T06:33:44.054Z,-0.76
2022-11-20T06:36:12.668Z,-0.79
2022-11-20T06:38:39.736Z,-1.02
2022-11-20T06:41:07.258Z,-0.74
2022-11-20T06:43:33.807Z,-1.01
2022-11-20T06:46:00.712Z,-0.70
2022-11-20T06:48:28.288Z,-0.99
2022-11-20T06:50:54.774Z,-0.91
2022-11-20T06:53:22.246Z,-0.68
2022-11-20T06:55:49.447Z,-0.88
2022-11-20T06:58:17.530Z,-0.93
2022-11-20T07:00:44.233Z,-0.36
2022-11-20T07:03:12.791Z,-0.88
2022-11-20T07:05:39.919Z,-0.26
2022-11-20T07:08:06.749Z,-0.35
2022-11-20T07:10:34.143Z,-0.08
2022-11-20T07:13:00.765Z,-0.49
2022-11-20T07:15:27.508Z,-0.02
2022-11-20T07:17:53.968Z,-0.31
2022-11-20T07:20:20.524Z,-0.01
2022-11-20T07:22:47.015Z,-0.28
2022-11-20T07:25:13.461Z,-0.15
2022-11-20T07:27:39.870Z,-0.43
2022-11-20T07:30:06.893Z,-0.24
2022-11-20T07:32:33.337Z,-0.53
2022-11-20T07:34:59.733Z,-0.34
2022-11-20T07:37:26.112Z,-0.48
2022-11-20T07:39:52.537Z,-0.15
2022-11-20T07:42:19.019Z,-0.17
2022-11-20T07:44:45.503Z,-0.46
2022-11-20T07:47:11.952Z,-0.07
2022-11-20T07:49:38.394Z,0.04
2022-11-20T07:52:05.515Z,0.23
2022-11-20T07:54:31.991Z,-0.08
2022-11-20T07:56:58.393Z,0.07
2022-11-20T07:59:24.823Z,0.43
2022-11-20T08:01:51.241Z,-0.23
2022-11-20T08:04:17.744Z,0.19
2022-11-20T08:06:44.181Z,0.18
2022-11-20T08:09:10.697Z,0.24
2022-11-20T08:11:37.130Z,-0.13
2022-11-20T08:14:04.034Z,0.30
2022-11-20T08:16:30.791Z,0.08
2022-11-20T08:18:57.275Z,-0.06
2022-11-20T08:21:23.697Z,0.45
2022-11-20T08:23:50.172Z,0.45
2022-11-20T08:26:16.642Z,0.49
2022-11-20T08:28:43.097Z,0.37
2022-11-20T08:31:09.657Z,0.42
2022-11-20T08:33:36.427Z,-0.07
2022-11-20T08:36:04.373Z,0.77
2022-11-20T08:38:31.776Z,0.45
2022-11-20T08:41:02.545Z,0.47
2022-11-20T08:43:28.938Z,0.65
2022-11-20T08:45:57.885Z,0.66
2022-11-20T08:48:24.355Z,0.81
2022-11-20T08:50:50.769Z,0.88
2022-11-20T08:53:17.211Z,0.49
2022-11-20T08:55:43.772Z,0.97
2022-11-20T08:58:10.240Z,0.63
2022-11-20T09:00:36.668Z,1.04
2022-11-20T09:03:03.160Z,0.73
2022-11-20T09:05:29.757Z,1.16
2022-11-20T09:08:00.422Z,1.36
2022-11-20T09:10:27.657Z,1.56
2022-11-20T09:12:54.756Z,1.53
2022-11-20T09:15:21.605Z,1.73
2022-11-20T09:17:55.394Z,1.69
2022-11-20T09:20:22.531Z,1.76
2022-11-20T09:22:49.397Z,1.61
2022-11-20T09:25:15.910Z,2.03
2022-11-20T09:27:42.354Z,1.51
2022-11-20T09:30:09.219Z,1.78
2022-11-20T09:32:35.633Z,1.06
2022-11-20T09:35:02.449Z,1.61
2022-11-20T09:37:29.418Z,2.01
2022-11-20T09:39:55.828Z,2.07
2022-11-20T09:42:31.261Z,1.76
2022-11-20T09:45:31.434Z,2.19
2022-11-20T09:48:25.970Z,2.25
2022-11-20T09:51:25.712Z,2.41
2022-11-20T09:54:08.604Z,1.89
2022-11-20T09:56:40.429Z,2.03
2022-11-20T09:59:15.304Z,1.80
2022-11-20T10:01:41.723Z,2.13
2022-11-20T10:04:18.930Z,2.36
2022-11-20T10:07:10.583Z,2.29
2022-11-20T10:09:44.579Z,2.18
2022-11-20T10:12:24.695Z,2.46
2022-11-20T10:14:59.836Z,2.36
2022-11-20T10:18:08.619Z,2.25
2022-11-20T10:20:49.628Z,2.05
2022-11-20T10:23:34.027Z,2.46
2022-11-20T10:26:13.612Z,2.58
2022-11-20T10:28:40.043Z,2.68
2022-11-20T10:31:15.406Z,2.22
2022-11-20T10:34:10.572Z,2.60
2022-11-20T10:36:44.743Z,2.55
2022-11-20T10:39:57.022Z,2.72
2022-11-20T10:42:32.946Z,2.98
2022-11-20T10:45:12.315Z,2.58
2022-11-20T10:47:38.768Z,2.86
2022-11-20T10:50:10.945Z,2.98
2022-11-20T10:52:43.382Z,3.01
2022-11-20T10:55:43.461Z,2.94
2022-11-20T10:58:29.508Z,3.19
2022-11-20T11:01:16.860Z,2.59
2022-11-20T11:03:43.654Z,2.90
2022-11-20T11:06:22.355Z,2.89
2022-11-20T11:08:51.320Z,2.99
2022-11-20T11:11:29.730Z,2.91
2022-11-20T11:14:16.594Z,3.34
2022-11-20T11:16:57.536Z,2.67
2022-11-20T11:19:25.011Z,2.98
2022-11-20T11:21:55.771Z,2.93
2022-11-20T11:24:41.117Z,3.14
2022-11-20T11:27:17.136Z,3.08
2022-11-20T11:29:44.410Z,3.26
2022-11-20T11:32:23.608Z,3.20
2022-11-20T11:35:05.652Z,3.35
2022-11-20T11:37:37.340Z,3.32
2022-11-20T11:40:27.311Z,3.46
2022-11-20T11:42:59.930Z,3.21
2022-11-20T11:45:27.252Z,3.57
2022-11-20T11:47:56.751Z,3.10
2022-11-20T11:50:25.929Z,3.52
2022-11-20T11:53:10.074Z,3.74
2022-11-20T11:55:41.565Z,3.65
2022-11-20T11:58:08.104Z,3.90
2022-11-20T12:00:38.574Z,3.81
2022-11-20T12:03:16.036Z,3.88
2022-11-20T12:05:58.649Z,3.58
2022-11-20T12:08:54.885Z,3.97
2022-11-20T12:11:32.222Z,4.02
2022-11-20T12:14:27.242Z,4.25
2022-11-20T12:16:54.440Z,4.07
2022-11-20T12:19:21.423Z,4.19
2022-11-20T12:22:02.000Z,4.13
2022-11-20T12:25:01.744Z,3.97
2022-11-20T12:27:37.328Z,4.27
2022-11-20T12:30:13.714Z,4.40
2022-11-20T12:33:04.269Z,4.40
2022-11-20T12:35:37.050Z,4.35
2022-11-20T12:38:03.446Z,4.59
2022-11-20T12:40:41.418Z,4.17
2022-11-20T12:43:19.813Z,4.47
2022-11-20T12:46:09.429Z,4.57
2022-11-20T12:49:00.564Z,4.58
2022-11-20T12:52:02.045Z,4.33
2022-11-20T12:54:42.285Z,4.14
2022-11-20T12:57:17.758Z,4.65
2022-11-20T12:59:52.882Z,4.68
2022-11-20T13:02:47.560Z,4.24
2022-11-20T13:05:33.868Z,4.65
2022-11-20T13:08:03.015Z,4.67
2022-11-20T13:10:47.149Z,4.28
2022-11-20T13:13:24.577Z,4.68
2022-11-20T13:16:11.618Z,4.73
2022-11-20T13:18:42.461Z,4.71
2022-11-20T13:21:38.429Z,4.75
2022-11-20T13:24:06.594Z,4.70
2022-11-20T13:26:33.150Z,4.62
2022-11-20T13:29:29.270Z,4.69
2022-11-20T13:32:07.783Z,4.25
2022-11-20T13:34:36.464Z,4.71
2022-11-20T13:37:03.097Z,4.66
2022-11-20T13:39:32.302Z,4.75
2022-11-20T13:42:12.536Z,4.74
2022-11-20T13:44:43.591Z,4.26
2022-11-20T13:47:29.849Z,4.79
2022-11-20T13:49:59.130Z,4.69
2022-11-20T13:52:50.363Z,4.88
2022-11-20T13:55:24.779Z,4.98
2022-11-20T13:58:08.096Z,4.90
2022-11-20T14:00:34.762Z,4.43
2022-11-20T14:03:07.400Z,4.93
2022-11-20T14:05:47.005Z,4.99
2022-11-20T14:08:24.710Z,4.87
2022-11-20T14:10:51.124Z,4.96
2022-11-20T14:13:21.676Z,4.45
2022-11-20T14:15:48.111Z,5.08
2022-11-20T14:18:20.468Z,5.08
2022-11-20T14:20:47.644Z,4.92
2022-11-20T14:23:29.962Z,5.14
2022-11-20T14:25:57.385Z,4.82
2022-11-20T14:28:31.763Z,5.01
2022-11-20T14:30:58.700Z,5.11
2022-11-20T14:33:27.440Z,5.29
2022-11-20T14:35:56.738Z,5.33
2022-11-20T14:38:29.718Z,5.33
2022-11-20T14:41:07.341Z,5.35
2022-11-20T14:43:33.777Z,4.70
2022-11-20T14:46:05.911Z,5.46
2022-11-20T14:48:57.874Z,5.39
2022-11-20T14:51:40.967Z,5.58
2022-11-20T14:54:10.446Z,5.63
2022-11-20T14:56:36.860Z,5.57
2022-11-20T14:59:03.362Z,5.21
2022-11-20T15:01:31.540Z,5.75
2022-11-20T15:04:12.007Z,5.81
2022-11-20T15:06:49.595Z,5.85
2022-11-20T15:09:16.301Z,5.42
2022-11-20T15:11:55.527Z,5.82
2022-11-20T15:14:22.708Z,5.79
2022-11-20T15:16:49.552Z,5.94
2022-11-20T15:19:24.843Z,5.93
2022-11-20T15:21:51.865Z,5.94
2022-11-20T15:24:18.685Z,5.96
2022-11-20T15:26:45.835Z,6.02
2022-11-20T15:29:14.252Z,6.05
2022-11-20T15:31:41.026Z,6.11
2022-11-20T15:34:13.701Z,6.15
2022-11-20T15:36:41.162Z,6.36
2022-11-20T15:39:08.310Z,5.81
2022-11-20T15:41:38.049Z,5.82
2022-11-20T15:44:05.523Z,6.24
2022-11-20T15:46:37.005Z,6.23
2022-11-20T15:49:03.462Z,6.15
2022-11-20T15:51:39.664Z,6.25
2022-11-20T15:54:18.233Z,6.21
2022-11-20T15:56:44.782Z,6.09
2022-11-20T15:59:11.256Z,6.14
2022-11-20T16:01:37.733Z,6.30
2022-11-20T16:04:06.352Z,5.70
2022-11-20T16:06:32.758Z,6.04
2022-11-20T16:08:59.189Z,6.31
2022-11-20T16:11:25.637Z,5.83
2022-11-20T16:13:52.077Z,6.43
2022-11-20T16:16:29.352Z,6.49
2022-11-20T16:18:55.814Z,6.35
2022-11-20T16:21:22.283Z,6.58
2022-11-20T16:23:48.747Z,6.11
2022-11-20T16:26:17.442Z,6.80
2022-11-20T16:28:44.582Z,6.81
2022-11-20T16:31:17.069Z,6.95
2022-11-20T16:33:43.619Z,6.46
2022-11-20T16:36:12.238Z,7.13
2022-11-20T16:38:38.697Z,7.12
2022-11-20T16:41:06.019Z,7.32
2022-11-20T16:43:32.810Z,6.79
2022-11-20T16:45:59.321Z,7.41
2022-11-20T16:48:25.842Z,6.91
2022-11-20T16:50:53.889Z,7.39
2022-11-20T16:53:22.114Z,6.94
2022-11-20T16:55:48.926Z,7.21
2022-11-20T16:58:15.696Z,7.26
2022-11-20T17:00:46.905Z,6.91
2022-11-20T17:03:16.746Z,7.35
2022-11-20T17:05:43.229Z,7.09
2022-11-20T17:08:09.702Z,6.71
2022-11-20T17:10:36.154Z,7.19
2022-11-20T17:13:02.588Z,6.98
2022-11-20T17:15:29.124Z,7.11
2022-11-20T17:17:55.555Z,7.08
2022-11-20T17:20:22.037Z,7.10
2022-11-20T17:22:48.493Z,6.49
2022-11-20T17:25:14.970Z,6.97
2022-11-20T17:27:41.401Z,6.50
2022-11-20T17:30:08.441Z,6.96
2022-11-20T17:32:34.869Z,6.94
2022-11-20T17:35:01.314Z,6.90
2022-11-20T17:37:27.760Z,6.30
2022-11-20T17:39:54.186Z,6.71
2022-11-20T17:42:20.649Z,6.62
2022-11-20T17:44:47.067Z,6.84
2022-11-20T17:47:13.462Z,6.32
2022-11-20T17:49:39.923Z,6.80
2022-11-20T17:52:06.306Z,6.80
2022-11-20T17:54:32.702Z,6.34
2022-11-20T17:56:59.141Z,6.80
2022-11-20T17:59:25.983Z,6.04
2022-11-20T18:01:52.537Z,6.74
2022-11-20T18:04:19.012Z,6.79
2022-11-20T18:06:45.467Z,6.41
2022-11-20T18:09:13.198Z,6.68
2022-11-20T18:11:41.584Z,6.33
2022-11-20T18:14:13.544Z,6.28
2022-11-20T18:16:42.662Z,6.69
2022-11-20T18:19:14.315Z,6.71
2022-11-20T18:21:40.816Z,6.64
2022-11-20T18:24:08.085Z,6.24
2022-11-20T18:26:36.792Z,6.62
2022-11-20T18:29:07.572Z,6.64
2022-11-20T18:31:34.294Z,6.23
2022-11-20T18:34:00.708Z,6.68
2022-11-20T18:36:29.911Z,6.11
2022-11-20T18:38:58.887Z,6.15
2022-11-20T18:41:30.650Z,6.18
2022-11-20T18:43:57.713Z,6.15
2022-11-20T18:46:24.145Z,6.49
2022-11-20T18:48:50.551Z,6.25
2022-11-20T18:51:16.995Z,6.37
2022-11-20T18:53:47.309Z,6.20
2022-11-20T18:56:14.195Z,6.50
2022-11-20T18:58:41.222Z,6.32
2022-11-20T19:01:08.200Z,6.49
2022-11-20T19:03:34.797Z,6.47
2022-11-20T19:06:01.297Z,6.21
2022-11-20T19:08:27.797Z,6.44
2022-11-20T19:10:54.269Z,6.58
2022-11-20T19:13:20.742Z,6.59
2022-11-20T19:15:47.642Z,6.15
2022-11-20T19:18:14.141Z,6.47
2022-11-20T19:20:40.655Z,6.18
2022-11-20T19:23:07.131Z,6.06
2022-11-20T19:25:37.923Z,5.98
2022-11-20T19:28:05.084Z,5.90
2022-11-20T19:30:32.678Z,6.02
2022-11-20T19:32:59.102Z,6.40
2022-11-20T19:35:25.545Z,6.39
2022-11-20T19:37:51.979Z,6.39
2022-11-20T19:40:18.450Z,6.15
2022-11-20T19:42:44.901Z,6.33
2022-11-20T19:45:11.301Z,6.40
2022-11-20T19:48:07.237Z,6.35
2022-11-20T19:50:24.226Z,6.01
2022-11-20T19:52:54.452Z,6.32
2022-11-20T19:55:24.893Z,6.41
2022-11-20T19:57:51.544Z,6.35
2022-11-20T20:00:25.607Z,6.05
2022-11-20T20:02:57.481Z,6.07
2022-11-20T20:05:23.965Z,6.42
2022-11-20T20:07:50.452Z,6.01
2022-11-20T20:10:16.986Z,6.57
2022-11-20T20:12:43.600Z,6.47
2022-11-20T20:15:10.082Z,6.55
2022-11-20T20:17:36.670Z,6.25
2022-11-20T20:20:03.538Z,6.57
2022-11-20T20:22:29.964Z,6.54
2022-11-20T20:24:56.374Z,6.55
2022-11-20T20:27:22.846Z,6.48
2022-11-20T20:29:49.286Z,6.45
2022-11-20T20:32:15.680Z,6.38
2022-11-20T20:34:42.108Z,6.50
2022-11-20T20:37:08.562Z,6.68
2022-11-20T20:39:34.987Z,6.58
2022-11-20T20:42:01.394Z,6.60
2022-11-20T20:44:27.774Z,6.24
2022-11-20T20:46:54.170Z,6.63
2022-11-20T20:49:20.580Z,6.31
2022-11-20T20:51:47.004Z,6.79
2022-11-20T20:54:13.419Z,6.51
2022-11-20T20:56:39.909Z,6.78
2022-11-20T20:59:06.382Z,7.05
2022-11-20T21:01:32.848Z,6.92
2022-11-20T21:03:59.261Z,6.85
2022-11-20T21:06:26.073Z,6.63
2022-11-20T21:08:53.009Z,6.91
2022-11-20T21:11:20.632Z,6.48
2022-11-20T21:13:48.149Z,6.57
2022-11-20T21:16:16.174Z,6.82
2022-11-20T21:18:42.614Z,6.45
2022-11-20T21:21:13.185Z,6.62
2022-11-20T21:23:39.759Z,6.76
2022-11-20T21:26:08.569Z,6.62
2022-11-20T21:28:36.378Z,6.34
2022-11-20T21:31:04.141Z,6.62
2022-11-20T21:34:01.591Z,6.40
2022-11-20T21:36:30.142Z,6.22
2022-11-20T21:38:58.213Z,6.59
2022-11-20T21:41:27.025Z,6.23
2022-11-20T21:44:29.067Z,6.22
2022-11-20T21:46:43.314Z,6.12
2022-11-20T21:49:10.504Z,6.61
2022-11-20T21:51:37.337Z,6.49
2022-11-20T21:54:03.862Z,6.77
2022-11-20T21:56:30.262Z,6.36
2022-11-20T21:58:56.704Z,6.74
2022-11-20T22:01:26.113Z,6.68
2022-11-20T22:03:55.089Z,6.87
2022-11-20T22:06:21.539Z,6.91
2022-11-20T22:08:48.409Z,6.75
2022-11-20T22:11:17.496Z,6.70
2022-11-20T22:13:44.270Z,6.85
2022-11-20T22:16:11.112Z,6.82
2022-11-20T22:18:42.792Z,6.73
2022-11-20T22:21:09.238Z,6.71
2022-11-20T22:23:36.302Z,6.75
2022-11-20T22:26:14.690Z,6.64
2022-11-20T22:28:41.653Z,6.34
2022-11-20T22:31:10.753Z,6.31
2022-11-20T22:33:39.131Z,6.69
2022-11-20T22:36:08.289Z,6.60
2022-11-20T22:38:39.273Z,6.75
2022-11-20T22:41:11.883Z,6.73
2022-11-20T22:43:39.297Z,6.68
2022-11-20T22:46:13.009Z,6.64
2022-11-20T22:48:48.669Z,6.51
2022-11-20T22:51:16.558Z,6.03
2022-11-20T22:53:43.902Z,6.37
2022-11-20T22:56:12.516Z,6.08
2022-11-20T22:58:40.722Z,6.40
2022-11-20T23:01:15.324Z,6.23
2022-11-20T23:03:43.956Z,6.34
2022-11-20T23:06:11.343Z,6.32
2022-11-20T23:08:39.556Z,6.48
2022-11-20T23:11:09.552Z,6.12
2022-11-20T23:13:36.922Z,6.61
2022-11-20T23:16:06.521Z,6.60
2022-11-20T23:18:33.889Z,6.10
2022-11-20T23:21:08.232Z,6.74
2022-11-20T23:23:34.665Z,6.41
2022-11-20T23:26:09.382Z,6.72
2022-11-20T23:28:35.935Z,6.77
2022-11-20T23:31:02.837Z,6.79
2022-11-20T23:33:29.365Z,6.91
2022-11-20T23:35:55.815Z,6.81
2022-11-20T23:38:22.818Z,6.69
2022-11-20T23:40:50.773Z,6.53
2022-11-20T23:43:19.164Z,6.50
2022-11-20T23:45:50.998Z,6.86
2022-11-20T23:48:18.594Z,6.88
2022-11-20T23:50:45.885Z,6.39
2022-11-20T23:53:13.246Z,6.74
2022-11-20T23:55:43.715Z,6.63
2022-11-20T23:58:10.369Z,6.62
